createdAt,value
2022-09-07T00:01:11.486Z,70.54
2022-09-07T00:03:39.143Z,69.89
2022-09-07T00:06:10.054Z,69.94
2022-09-07T00:08:40.082Z,69.65
2022-09-07T00:11:13.000Z,68.00
2022-09-07T00:13:41.948Z,67.77
2022-09-07T00:16:13.448Z,68.47
2022-09-07T00:18:45.848Z,68.37
2022-09-07T00:21:17.386Z,68.81
2022-09-07T00:23:47.850Z,69.72
2022-09-07T00:26:21.379Z,69.37
2022-09-07T00:28:50.146Z,68.85
2022-09-07T00:31:22.108Z,69.06
2022-09-07T00:33:51.524Z,69.65
2022-09-07T00:36:20.386Z,69.73
2022-09-07T00:38:48.795Z,70.28
2022-09-07T00:41:17.798Z,69.82
2022-09-07T00:43:58.757Z,70.40
2022-09-07T00:46:28.828Z,69.78
2022-09-07T00:49:02.645Z,69.96
2022-09-07T00:51:41.163Z,69.94
2022-09-07T00:54:23.522Z,70.61
2022-09-07T00:56:55.024Z,70.43
2022-09-07T00:59:27.478Z,70.88
2022-09-07T01:01:55.985Z,70.82
2022-09-07T01:04:24.260Z,71.34
2022-09-07T01:06:55.156Z,72.14
2022-09-07T01:09:24.786Z,71.89
2022-09-07T01:11:54.987Z,72.25
2022-09-07T01:14:27.744Z,72.30
2022-09-07T01:16:58.019Z,72.68
2022-09-07T01:19:57.131Z,73.26
2022-09-07T01:22:43.269Z,73.19
2022-09-07T01:25:18.381Z,73.50
2022-09-07T01:27:51.869Z,73.62
2022-09-07T01:30:21.412Z,73.69
2022-09-07T01:33:19.611Z,73.98
2022-09-07T01:35:59.190Z,74.46
2022-09-07T01:38:42.968Z,74.67
2022-09-07T01:41:22.837Z,74.65
2022-09-07T01:44:02.996Z,75.91
2022-09-07T01:46:40.015Z,76.51
2022-09-07T01:49:29.615Z,75.93
2022-09-07T01:52:06.235Z,75.90
2022-09-07T01:54:42.451Z,75.48
2022-09-07T01:57:18.261Z,75.92
2022-09-07T02:00:02.918Z,76.16
2022-09-07T02:02:53.070Z,76.56
2022-09-07T02:05:23.130Z,76.80
2022-09-07T02:08:11.420Z,76.41
2022-09-07T02:10:51.677Z,76.82
2022-09-07T02:13:22.290Z,75.96
2022-09-07T02:15:59.049Z,75.81
2022-09-07T02:18:31.899Z,76.47
2022-09-07T02:21:02.084Z,76.68
2022-09-07T02:23:36.333Z,76.86
2022-09-07T02:26:10.522Z,76.82
2022-09-07T02:28:39.841Z,76.47
2022-09-07T02:31:08.301Z,76.06
2022-09-07T02:33:37.201Z,75.43
2022-09-07T02:36:05.530Z,76.11
2022-09-07T02:38:35.008Z,76.10
2022-09-07T02:41:04.964Z,75.52
2022-09-07T02:43:33.733Z,74.50
2022-09-07T02:46:37.784Z,73.97
2022-09-07T02:49:42.682Z,74.38
2022-09-07T02:52:40.410Z,75.33
2022-09-07T02:55:27.752Z,75.63
2022-09-07T02:58:41.711Z,75.67
2022-09-07T03:01:15.104Z,76.20
2022-09-07T03:03:46.600Z,77.19
2022-09-07T03:06:25.162Z,77.58
2022-09-07T03:08:58.759Z,77.59
2022-09-07T03:11:26.694Z,76.96
2022-09-07T03:14:11.842Z,77.07
2022-09-07T03:16:39.670Z,77.26
2022-09-07T03:19:07.737Z,77.57
2022-09-07T03:21:35.921Z,78.15
2022-09-07T03:24:04.159Z,78.25
2022-09-07T03:26:32.236Z,78.09
2022-09-07T03:29:00.038Z,78.43
2022-09-07T03:31:27.529Z,79.23
2022-09-07T03:33:55.920Z,78.52
2022-09-07T03:36:23.430Z,78.23
2022-09-07T03:38:51.102Z,78.15
2022-09-07T03:41:19.052Z,78.08
2022-09-07T03:43:46.952Z,78.45
2022-09-07T03:46:19.581Z,79.61
2022-09-07T03:48:49.792Z,80.02
2022-09-07T03:51:20.700Z,80.51
2022-09-07T03:53:51.631Z,80.82
2022-09-07T03:56:21.805Z,80.00
2022-09-07T03:58:51.473Z,80.35
2022-09-07T04:01:22.745Z,80.17
2022-09-07T04:03:51.320Z,80.69
2022-09-07T04:06:20.200Z,80.33
2022-09-07T04:08:49.157Z,80.07
2022-09-07T04:11:19.259Z,79.89
2022-09-07T04:13:47.992Z,77.70
2022-09-07T04:16:21.361Z,77.60
2022-09-07T04:18:52.002Z,78.38
2022-09-07T04:21:21.461Z,77.96
2022-09-07T04:23:49.682Z,78.27
2022-09-07T04:26:20.955Z,78.76
2022-09-07T04:28:49.657Z,79.55
2022-09-07T04:31:19.385Z,79.95
2022-09-07T04:33:48.936Z,79.85
2022-09-07T04:36:17.611Z,79.81
2022-09-07T04:38:45.785Z,80.77
2022-09-07T04:41:18.660Z,80.71
2022-09-07T04:43:47.325Z,81.34
2022-09-07T04:46:23.635Z,80.80
2022-09-07T04:48:53.427Z,80.81
2022-09-07T04:51:22.452Z,80.79
2022-09-07T04:53:51.914Z,81.85
2022-09-07T04:56:20.734Z,81.29
2022-09-07T04:58:49.520Z,81.61
2022-09-07T05:01:19.813Z,81.06
2022-09-07T05:03:47.863Z,81.79
2022-09-07T05:06:17.455Z,82.20
2022-09-07T05:08:47.619Z,82.52
2022-09-07T05:11:16.105Z,82.36
2022-09-07T05:13:44.074Z,82.77
2022-09-07T05:16:13.036Z,82.81
2022-09-07T05:18:41.486Z,82.81
2022-09-07T05:21:12.378Z,83.35
2022-09-07T05:23:42.779Z,83.21
2022-09-07T05:26:13.344Z,83.83
2022-09-07T05:28:40.983Z,83.42
2022-09-07T05:36:37.887Z,79.95
2022-09-07T05:39:07.549Z,79.81
2022-09-07T05:41:35.530Z,79.81
2022-09-07T05:46:52.474Z,80.43
2022-09-07T05:49:20.004Z,80.39
2022-09-07T05:51:48.345Z,80.64
2022-09-07T05:54:15.985Z,78.41
2022-09-07T05:56:43.709Z,77.11
2022-09-07T05:59:11.399Z,77.01
2022-09-07T06:01:38.953Z,76.49
2022-09-07T06:04:06.495Z,76.19
2022-09-07T06:06:38.438Z,76.41
2022-09-07T06:09:06.847Z,74.52
2022-09-07T06:11:34.286Z,74.05
2022-09-07T06:14:01.665Z,74.41
2022-09-07T06:16:29.141Z,74.11
2022-09-07T06:18:56.669Z,74.52
2022-09-07T06:21:24.667Z,75.34
2022-09-07T06:23:51.998Z,73.33
2022-09-07T06:26:19.809Z,73.97
2022-09-07T06:28:50.266Z,73.77
2022-09-07T06:31:20.490Z,73.11
2022-09-07T06:33:48.956Z,72.89
2022-09-07T06:36:17.267Z,71.42
2022-09-07T06:38:45.733Z,71.56
2022-09-07T06:44:18.380Z,69.45
2022-09-07T06:49:33.106Z,67.79
2022-09-07T06:52:00.487Z,67.08
2022-09-07T06:57:15.489Z,67.65
2022-09-07T06:59:42.785Z,68.68
2022-09-07T07:02:13.303Z,68.57
2022-09-07T07:04:41.494Z,66.63
2022-09-07T07:07:13.915Z,66.42
2022-09-07T07:09:42.123Z,65.99
2022-09-07T07:12:10.805Z,65.89
2022-09-07T07:14:44.099Z,66.24
2022-09-07T07:17:12.578Z,67.08
2022-09-07T07:19:41.123Z,66.70
2022-09-07T07:22:23.978Z,66.53
2022-09-07T07:24:55.964Z,68.37
2022-09-07T07:27:23.391Z,67.69
2022-09-07T07:29:52.426Z,68.38
2022-09-07T07:32:19.887Z,67.06
2022-09-07T07:34:47.175Z,66.04
2022-09-07T07:37:16.183Z,66.49
2022-09-07T07:42:32.533Z,64.89
2022-09-07T07:47:51.421Z,64.31
2022-09-07T07:50:34.755Z,63.21
2022-09-07T07:55:53.816Z,59.30
2022-09-07T07:58:21.172Z,59.88
2022-09-07T08:00:54.692Z,61.17
2022-09-07T08:03:24.597Z,59.98
2022-09-07T08:05:52.640Z,60.50
2022-09-07T08:08:26.088Z,60.99
2022-09-07T08:10:53.503Z,61.62
2022-09-07T08:13:21.460Z,61.21
2022-09-07T08:15:49.268Z,61.21
2022-09-07T08:18:17.344Z,60.78
2022-09-07T08:20:44.998Z,61.31
2022-09-07T08:23:12.316Z,60.52
2022-09-07T08:25:49.249Z,58.58
2022-09-07T08:28:16.638Z,56.57
2022-09-07T08:30:44.000Z,55.90
2022-09-07T08:33:11.555Z,55.72
2022-09-07T08:35:38.901Z,54.42
2022-09-07T08:38:06.288Z,52.99
2022-09-07T08:40:37.156Z,52.47
2022-09-07T08:43:28.530Z,51.91
2022-09-07T08:46:03.679Z,51.95
2022-09-07T08:48:34.336Z,52.24
2022-09-07T08:51:24.339Z,54.35
2022-09-07T08:53:52.217Z,52.94
2022-09-07T08:56:32.930Z,52.93
2022-09-07T08:59:08.135Z,51.97
2022-09-07T09:01:41.237Z,52.53
2022-09-07T09:04:24.106Z,52.06
2022-09-07T09:07:09.899Z,52.17
2022-09-07T09:10:05.492Z,52.15
2022-09-07T09:13:03.849Z,51.57
2022-09-07T09:15:54.380Z,51.88
2022-09-07T09:18:59.797Z,52.40
2022-09-07T09:21:27.619Z,52.19
2022-09-07T09:24:02.046Z,52.43
2022-09-07T09:26:34.086Z,51.80
2022-09-07T09:29:21.828Z,51.25
2022-09-07T09:31:49.587Z,50.37
2022-09-07T09:34:21.185Z,50.58
2022-09-07T09:36:53.333Z,50.73
2022-09-07T09:39:35.421Z,50.04
2022-09-07T09:42:11.805Z,49.43
2022-09-07T09:44:39.796Z,49.61
2022-09-07T09:47:35.050Z,48.74
2022-09-07T09:50:07.975Z,48.12
2022-09-07T09:52:45.432Z,48.57
2022-09-07T09:55:34.977Z,47.57
2022-09-07T10:01:35.976Z,48.29
2022-09-07T10:04:25.551Z,48.56
2022-09-07T10:06:55.398Z,48.89
2022-09-07T10:09:26.978Z,48.59
2022-09-07T10:12:07.576Z,48.49
2022-09-07T10:14:46.357Z,50.39
2022-09-07T10:17:37.421Z,49.40
2022-09-07T10:20:16.980Z,49.72
2022-09-07T10:22:49.651Z,48.05
2022-09-07T10:25:44.304Z,47.29
2022-09-07T10:28:12.650Z,47.20
2022-09-07T10:30:52.028Z,47.68
2022-09-07T10:37:00.467Z,47.93
2022-09-07T10:39:41.569Z,47.93
2022-09-07T10:42:09.226Z,48.74
2022-09-07T10:44:57.537Z,49.29
2022-09-07T10:48:03.091Z,46.90
2022-09-07T10:50:36.342Z,48.80
2022-09-07T10:53:42.756Z,48.74
2022-09-07T10:56:21.662Z,47.46
2022-09-07T11:02:35.337Z,47.01
2022-09-07T11:05:05.709Z,47.30
2022-09-07T11:08:01.019Z,47.33
2022-09-07T11:10:43.605Z,48.18
2022-09-07T11:13:16.615Z,47.59
2022-09-07T11:15:50.639Z,46.94
2022-09-07T11:18:22.709Z,50.13
2022-09-07T11:20:55.541Z,49.85
2022-09-07T11:23:49.456Z,48.42
2022-09-07T11:26:23.437Z,47.55
2022-09-07T11:29:34.934Z,47.77
2022-09-07T11:32:09.805Z,47.85
2022-09-07T11:35:19.413Z,47.81
2022-09-07T11:37:59.239Z,47.42
2022-09-07T11:41:08.697Z,47.48
2022-09-07T11:43:43.474Z,47.78
2022-09-07T11:46:26.332Z,48.25
2022-09-07T11:48:56.607Z,49.24
2022-09-07T11:51:36.144Z,49.08
2022-09-07T11:54:45.363Z,48.57
2022-09-07T11:57:29.185Z,49.07
2022-09-07T12:00:19.762Z,49.71
2022-09-07T12:03:15.721Z,49.36
2022-09-07T12:05:56.808Z,48.81
2022-09-07T12:09:00.073Z,49.76
2022-09-07T12:12:05.637Z,49.01
2022-09-07T12:14:44.797Z,48.86
2022-09-07T12:17:27.129Z,48.70
2022-09-07T12:20:18.344Z,49.11
2022-09-07T12:23:05.495Z,50.30
2022-09-07T12:25:34.821Z,49.14
2022-09-07T12:28:02.865Z,49.02
2022-09-07T12:30:31.899Z,48.46
2022-09-07T12:33:18.501Z,49.72
2022-09-07T12:35:46.025Z,50.19
2022-09-07T12:38:13.530Z,49.48
2022-09-07T12:40:47.342Z,48.56
2022-09-07T12:43:14.747Z,49.16
2022-09-07T12:45:42.285Z,49.90
2022-09-07T12:48:15.676Z,49.55
2022-09-07T12:51:16.080Z,48.56
2022-09-07T12:54:01.426Z,48.56
2022-09-07T12:56:34.481Z,48.11
2022-09-07T12:59:19.858Z,47.95
2022-09-07T13:02:11.254Z,46.99
2022-09-07T13:04:46.280Z,47.16
2022-09-07T13:07:44.064Z,47.96
2022-09-07T13:10:27.241Z,48.46
2022-09-07T13:13:02.114Z,48.27
2022-09-07T13:16:10.582Z,47.15
2022-09-07T13:18:43.725Z,45.46
2022-09-07T13:21:12.147Z,45.65
2022-09-07T13:23:45.767Z,45.57
2022-09-07T13:26:51.785Z,45.48
2022-09-07T13:29:24.402Z,45.37
2022-09-07T13:32:03.808Z,46.14
2022-09-07T13:34:33.896Z,45.60
2022-09-07T13:37:03.426Z,45.13
2022-09-07T13:39:40.706Z,44.72
2022-09-07T13:42:17.253Z,44.12
2022-09-07T13:44:53.552Z,45.53
2022-09-07T13:47:55.914Z,46.45
2022-09-07T13:50:38.455Z,45.10
2022-09-07T13:53:21.144Z,45.40
2022-09-07T13:56:05.698Z,46.25
2022-09-07T13:58:34.503Z,46.18
2022-09-07T14:01:13.489Z,46.15
2022-09-07T14:03:59.715Z,47.04
2022-09-07T14:06:30.285Z,46.57
2022-09-07T14:09:02.529Z,47.39
2022-09-07T14:11:45.806Z,47.80
2022-09-07T14:14:17.272Z,48.14
2022-09-07T14:17:05.476Z,47.63
2022-09-07T14:19:45.043Z,47.77
2022-09-07T14:22:16.835Z,49.45
2022-09-07T14:24:56.105Z,51.38
2022-09-07T14:27:26.245Z,48.96
2022-09-07T14:29:53.700Z,48.60
2022-09-07T14:32:24.703Z,49.87
2022-09-07T14:34:52.509Z,49.73
2022-09-07T14:37:22.025Z,50.39
2022-09-07T14:39:51.173Z,50.48
2022-09-07T14:42:23.644Z,50.46
2022-09-07T14:45:20.600Z,50.65
2022-09-07T14:47:52.164Z,50.66
2022-09-07T14:50:41.227Z,51.15
2022-09-07T14:53:36.297Z,51.03
2022-09-07T14:56:20.992Z,50.63
2022-09-07T14:58:53.347Z,51.61
2022-09-07T15:01:39.736Z,50.99
2022-09-07T15:04:21.202Z,50.09
2022-09-07T15:07:04.296Z,50.04
2022-09-07T15:09:37.191Z,50.75
2022-09-07T15:12:18.988Z,49.91
2022-09-07T15:14:47.887Z,49.87
2022-09-07T15:17:46.894Z,50.10
2022-09-07T15:20:45.232Z,49.97
2022-09-07T15:23:19.318Z,50.18
2022-09-07T15:25:53.596Z,50.45
2022-09-07T15:34:13.186Z,49.83
2022-09-07T15:36:44.370Z,49.63
2022-09-07T15:39:28.077Z,48.77
2022-09-07T15:41:56.749Z,49.17
2022-09-07T15:44:26.315Z,49.72
2022-09-07T15:49:49.497Z,51.03
2022-09-07T15:52:17.758Z,50.52
2022-09-07T15:54:46.597Z,50.18
2022-09-07T16:00:06.054Z,51.29
2022-09-07T16:05:30.993Z,50.82
2022-09-07T16:10:54.302Z,50.34
2022-09-07T16:13:24.119Z,50.90
2022-09-07T16:15:52.913Z,50.81
2022-09-07T16:18:21.235Z,50.79
2022-09-07T16:20:52.677Z,51.68
2022-09-07T16:23:20.727Z,50.46
2022-09-07T16:26:00.726Z,53.13
2022-09-07T16:28:29.237Z,53.87
2022-09-07T16:30:57.603Z,54.96
2022-09-07T16:33:33.106Z,53.82
2022-09-07T16:36:07.666Z,53.83
2022-09-07T16:38:50.641Z,53.55
2022-09-07T16:41:22.696Z,52.80
2022-09-07T16:43:50.704Z,53.64
2022-09-07T16:46:21.091Z,55.62
2022-09-07T16:48:50.638Z,54.40
2022-09-07T16:51:21.412Z,55.49
2022-09-07T16:53:51.179Z,57.24
2022-09-07T16:56:20.910Z,56.26
2022-09-07T16:58:52.336Z,57.23
2022-09-07T17:01:23.476Z,58.91
2022-09-07T17:03:52.425Z,59.19
2022-09-07T17:06:23.658Z,57.42
2022-09-07T17:08:53.184Z,55.76
2022-09-07T17:11:32.280Z,55.63
2022-09-07T17:14:00.387Z,55.83
2022-09-07T17:17:06.893Z,56.70
2022-09-07T17:19:34.904Z,56.00
2022-09-07T17:22:03.533Z,56.32
2022-09-07T17:24:32.823Z,56.81
2022-09-07T17:27:01.120Z,56.73
2022-09-07T17:29:32.991Z,57.15
2022-09-07T17:32:29.265Z,57.68
2022-09-07T17:34:58.078Z,58.24
2022-09-07T17:37:25.811Z,58.10
2022-09-07T17:39:53.557Z,58.81
2022-09-07T17:42:21.300Z,60.10
2022-09-07T17:44:52.789Z,59.77
2022-09-07T17:47:20.701Z,60.87
2022-09-07T17:49:48.035Z,60.87
2022-09-07T17:52:15.767Z,60.22
2022-09-07T17:54:43.159Z,60.24
2022-09-07T17:57:10.679Z,61.83
2022-09-07T18:02:25.486Z,61.65
2022-09-07T18:04:52.813Z,63.69
2022-09-07T18:07:20.224Z,64.35
2022-09-07T18:09:47.550Z,63.62
2022-09-07T18:12:14.957Z,63.28
2022-09-07T18:14:43.619Z,62.52
2022-09-07T18:17:11.216Z,62.34
2022-09-07T18:19:38.773Z,62.91
2022-09-07T18:22:06.277Z,62.57
2022-09-07T18:24:36.996Z,62.72
2022-09-07T18:27:07.717Z,62.70
2022-09-07T18:29:35.254Z,62.22
2022-09-07T18:32:08.763Z,62.56
2022-09-07T18:34:38.599Z,62.69
2022-09-07T18:37:06.817Z,62.49
2022-09-07T18:39:35.570Z,63.50
2022-09-07T18:42:04.191Z,63.26
2022-09-07T18:47:31.713Z,64.05
2022-09-07T18:49:59.319Z,64.10
2022-09-07T18:55:16.337Z,63.51
2022-09-07T18:57:44.863Z,63.65
2022-09-07T19:00:13.833Z,64.54
2022-09-07T19:02:42.534Z,64.28
2022-09-07T19:08:02.983Z,65.72
2022-09-07T19:10:36.494Z,65.09
2022-09-07T19:13:05.678Z,66.02
2022-09-07T19:15:37.513Z,66.10
2022-09-07T19:18:08.339Z,66.64
2022-09-07T19:20:38.983Z,66.77
2022-09-07T19:23:08.642Z,67.01
2022-09-07T19:25:41.616Z,65.98
2022-09-07T19:28:11.862Z,66.85
2022-09-07T19:30:41.530Z,66.72
2022-09-07T19:33:12.611Z,67.52
2022-09-07T19:35:41.683Z,67.37
2022-09-07T19:38:13.528Z,66.94
2022-09-07T19:40:42.516Z,67.49
2022-09-07T19:43:11.434Z,67.32
2022-09-07T19:45:44.202Z,67.14
2022-09-07T19:48:13.027Z,67.29
2022-09-07T19:50:43.890Z,67.68
2022-09-07T19:53:15.371Z,67.66
2022-09-07T19:55:45.349Z,68.28
2022-09-07T19:58:15.340Z,69.14
2022-09-07T20:00:45.466Z,68.86
2022-09-07T20:03:16.626Z,68.12
2022-09-07T20:05:47.000Z,68.47
2022-09-07T20:08:15.669Z,68.27
2022-09-07T20:10:44.961Z,69.38
2022-09-07T20:13:13.947Z,68.75
2022-09-07T20:15:45.596Z,68.46
2022-09-07T20:18:15.571Z,69.01
2022-09-07T20:20:45.655Z,69.10
2022-09-07T20:23:16.572Z,69.28
2022-09-07T20:25:45.487Z,69.11
2022-09-07T20:28:14.614Z,69.44
2022-09-07T20:30:44.955Z,69.77
2022-09-07T20:33:13.537Z,69.36
2022-09-07T20:35:44.773Z,69.51
2022-09-07T20:38:14.266Z,69.19
2022-09-07T20:40:59.332Z,69.33
2022-09-07T20:43:27.905Z,69.28
2022-09-07T20:45:59.309Z,68.92
2022-09-07T20:48:28.481Z,68.93
2022-09-07T20:51:04.322Z,68.92
2022-09-07T20:53:33.800Z,68.27
2022-09-07T20:56:15.458Z,68.29
2022-09-07T20:58:45.870Z,68.13
2022-09-07T21:01:19.207Z,68.07
2022-09-07T21:03:49.663Z,68.02
2022-09-07T21:06:18.075Z,68.27
2022-09-07T21:08:47.168Z,68.43
2022-09-07T21:11:20.363Z,67.72
2022-09-07T21:13:50.588Z,67.55
2022-09-07T21:16:18.557Z,67.13
2022-09-07T21:18:46.003Z,67.02
2022-09-07T21:21:20.975Z,67.01
2022-09-07T21:23:49.560Z,66.58
2022-09-07T21:26:21.010Z,66.33
2022-09-07T21:28:48.634Z,67.01
2022-09-07T21:31:16.073Z,66.71
2022-09-07T21:33:43.435Z,67.06
2022-09-07T21:36:13.139Z,66.41
2022-09-07T21:38:41.337Z,65.88
2022-09-07T21:41:14.093Z,66.04
2022-09-07T21:43:42.351Z,65.94
2022-09-07T21:46:12.864Z,65.77
2022-09-07T21:48:40.305Z,66.03
2022-09-07T21:51:07.999Z,65.77
2022-09-07T21:53:35.598Z,65.44
2022-09-07T21:56:05.694Z,65.52
2022-09-07T21:58:33.707Z,65.66
2022-09-07T22:01:12.342Z,65.19
2022-09-07T22:03:40.609Z,65.06
2022-09-07T22:06:08.535Z,64.76
2022-09-07T22:08:37.326Z,65.09
2022-09-07T22:11:07.049Z,65.04
2022-09-07T22:13:35.096Z,64.90
2022-09-07T22:16:03.958Z,64.87
2022-09-07T22:18:31.945Z,65.15
2022-09-07T22:21:11.161Z,65.58
2022-09-07T22:23:42.817Z,65.53
2022-09-07T22:26:10.292Z,65.46
2022-09-07T22:28:38.531Z,65.38
2022-09-07T22:31:26.707Z,65.47
2022-09-07T22:33:55.120Z,65.83
2022-09-07T22:36:26.138Z,65.74
2022-09-07T22:38:56.288Z,65.67
2022-09-07T22:41:29.662Z,65.74
2022-09-07T22:43:57.461Z,65.85
2022-09-07T22:46:27.572Z,65.77
2022-09-07T22:48:56.068Z,65.86
2022-09-07T22:51:26.237Z,66.17
2022-09-07T22:53:54.636Z,66.41
2022-09-07T22:56:26.298Z,66.29
2022-09-07T22:58:59.303Z,65.78
2022-09-07T23:01:29.413Z,65.66
2022-09-07T23:03:57.856Z,66.04
2022-09-07T23:06:27.850Z,66.31
2022-09-07T23:08:58.140Z,65.82
2022-09-07T23:11:25.717Z,65.67
2022-09-07T23:13:57.690Z,66.00
2022-09-07T23:16:27.187Z,65.55
2022-09-07T23:18:59.249Z,65.88
2022-09-07T23:21:27.873Z,65.94
2022-09-07T23:23:57.995Z,65.30
2022-09-07T23:26:28.802Z,65.31
2022-09-07T23:28:58.565Z,65.66
2022-09-07T23:31:27.329Z,65.75
2022-09-07T23:33:56.370Z,65.27
2022-09-07T23:36:24.685Z,65.61
2022-09-07T23:38:55.421Z,65.81
2022-09-07T23:41:24.590Z,65.68
2022-09-07T23:43:52.783Z,65.58
2022-09-07T23:46:20.900Z,65.73
2022-09-07T23:48:48.999Z,65.12
2022-09-07T23:51:21.236Z,65.14
2022-09-07T23:53:49.126Z,65.42
2022-09-07T23:56:16.707Z,65.35
2022-09-07T23:58:44.086Z,65.61
